sensor_id;sensor_type;location;lat;lon;timestamp;P1;durP1;ratioP1;P2;durP2;ratioP2
14169;SDS011;63889;50.596;8.690;2023-04-06T00:01:09;8.07;;;4.53;;
14169;SDS011;63889;50.596;8.690;2023-04-06T00:03:35;10.02;;;4.63;;
14169;SDS011;63889;50.596;8.690;2023-04-06T00:06:01;7.18;;;3.53;;
14169;SDS011;63889;50.596;8.690;2023-04-06T00:08:27;8.20;;;4.03;;
14169;SDS011;63889;50.596;8.690;2023-04-06T00:10:52;6.40;;;3.63;;
14169;SDS011;63889;50.596;8.690;2023-04-06T00:13:18;7.10;;;3.58;;
14169;SDS011;63889;50.596;8.690;2023-04-06T00:15:43;12.18;;;3.78;;
14169;SDS011;63889;50.596;8.690;2023-04-06T00:18:09;5.85;;;3.88;;
14169;SDS011;63889;50.596;8.690;2023-04-06T00:20:35;9.23;;;4.35;;
14169;SDS011;63889;50.596;8.690;2023-04-06T00:23:01;5.93;;;3.70;;
14169;SDS011;63889;50.596;8.690;2023-04-06T00:25:26;7.97;;;3.95;;
14169;SDS011;63889;50.596;8.690;2023-04-06T00:27:52;10.38;;;4.07;;
14169;SDS011;63889;50.596;8.690;2023-04-06T00:30:17;8.20;;;3.83;;
14169;SDS011;63889;50.596;8.690;2023-04-06T00:32:43;6.63;;;3.90;;
14169;SDS011;63889;50.596;8.690;2023-04-06T00:35:09;8.98;;;3.95;;
14169;SDS011;63889;50.596;8.690;2023-04-06T00:37:35;6.72;;;4.28;;
14169;SDS011;63889;50.596;8.690;2023-04-06T00:40:00;8.48;;;4.40;;
14169;SDS011;63889;50.596;8.690;2023-04-06T00:42:27;8.00;;;4.60;;
14169;SDS011;63889;50.596;8.690;2023-04-06T00:44:53;9.38;;;4.43;;
14169;SDS011;63889;50.596;8.690;2023-04-06T00:47:23;8.32;;;3.97;;
14169;SDS011;63889;50.596;8.690;2023-04-06T00:49:50;7.93;;;4.18;;
14169;SDS011;63889;50.596;8.690;2023-04-06T00:52:16;11.13;;;4.57;;
14169;SDS011;63889;50.596;8.690;2023-04-06T00:54:42;12.68;;;4.68;;
14169;SDS011;63889;50.596;8.690;2023-04-06T00:57:09;11.77;;;4.55;;
14169;SDS011;63889;50.596;8.690;2023-04-06T00:59:36;8.38;;;4.15;;
14169;SDS011;63889;50.596;8.690;2023-04-06T01:02:02;7.45;;;4.28;;
14169;SDS011;63889;50.596;8.690;2023-04-06T01:04:28;10.23;;;4.68;;
14169;SDS011;63889;50.596;8.690;2023-04-06T01:06:54;7.00;;;5.05;;
14169;SDS011;63889;50.596;8.690;2023-04-06T01:09:19;7.57;;;3.85;;
14169;SDS011;63889;50.596;8.690;2023-04-06T01:11:46;7.25;;;4.07;;
14169;SDS011;63889;50.596;8.690;2023-04-06T01:14:11;6.38;;;3.60;;
14169;SDS011;63889;50.596;8.690;2023-04-06T01:16:37;8.07;;;4.07;;
14169;SDS011;63889;50.596;8.690;2023-04-06T01:19:09;9.32;;;4.57;;
14169;SDS011;63889;50.596;8.690;2023-04-06T01:21:39;8.30;;;3.65;;
14169;SDS011;63889;50.596;8.690;2023-04-06T01:24:06;9.85;;;4.05;;
14169;SDS011;63889;50.596;8.690;2023-04-06T01:26:33;7.95;;;4.35;;
14169;SDS011;63889;50.596;8.690;2023-04-06T01:29:00;9.57;;;4.32;;
14169;SDS011;63889;50.596;8.690;2023-04-06T01:31:26;9.02;;;4.53;;
14169;SDS011;63889;50.596;8.690;2023-04-06T01:33:52;6.60;;;3.97;;
14169;SDS011;63889;50.596;8.690;2023-04-06T01:36:18;8.02;;;3.97;;
14169;SDS011;63889;50.596;8.690;2023-04-06T01:38:45;7.95;;;3.65;;
14169;SDS011;63889;50.596;8.690;2023-04-06T01:41:10;5.60;;;3.25;;
14169;SDS011;63889;50.596;8.690;2023-04-06T01:43:36;7.07;;;3.78;;
14169;SDS011;63889;50.596;8.690;2023-04-06T01:46:02;6.80;;;3.10;;
14169;SDS011;63889;50.596;8.690;2023-04-06T01:48:27;6.72;;;3.38;;
14169;SDS011;63889;50.596;8.690;2023-04-06T01:50:53;5.80;;;3.85;;
14169;SDS011;63889;50.596;8.690;2023-04-06T01:53:20;6.43;;;3.38;;
14169;SDS011;63889;50.596;8.690;2023-04-06T01:55:45;7.57;;;4.03;;
14169;SDS011;63889;50.596;8.690;2023-04-06T01:58:11;8.57;;;3.75;;
14169;SDS011;63889;50.596;8.690;2023-04-06T02:00:37;7.00;;;3.67;;
14169;SDS011;63889;50.596;8.690;2023-04-06T02:03:03;7.57;;;3.55;;
14169;SDS011;63889;50.596;8.690;2023-04-06T02:05:29;7.75;;;4.15;;
14169;SDS011;63889;50.596;8.690;2023-04-06T02:07:55;7.82;;;3.75;;
14169;SDS011;63889;50.596;8.690;2023-04-06T02:10:21;11.38;;;3.97;;
14169;SDS011;63889;50.596;8.690;2023-04-06T02:12:47;6.82;;;3.78;;
14169;SDS011;63889;50.596;8.690;2023-04-06T02:15:13;8.27;;;3.97;;
14169;SDS011;63889;50.596;8.690;2023-04-06T02:17:40;7.28;;;4.00;;
14169;SDS011;63889;50.596;8.690;2023-04-06T02:20:06;9.70;;;3.90;;
14169;SDS011;63889;50.596;8.690;2023-04-06T02:22:32;8.95;;;4.15;;
14169;SDS011;63889;50.596;8.690;2023-04-06T02:24:57;8.98;;;3.90;;
14169;SDS011;63889;50.596;8.690;2023-04-06T02:27:23;6.00;;;3.08;;
14169;SDS011;63889;50.596;8.690;2023-04-06T02:29:48;8.90;;;4.15;;
14169;SDS011;63889;50.596;8.690;2023-04-06T02:32:14;6.85;;;4.18;;
14169;SDS011;63889;50.596;8.690;2023-04-06T02:34:40;12.48;;;4.40;;
14169;SDS011;63889;50.596;8.690;2023-04-06T02:37:05;8.10;;;3.80;;
14169;SDS011;63889;50.596;8.690;2023-04-06T02:39:31;10.73;;;4.28;;
14169;SDS011;63889;50.596;8.690;2023-04-06T02:41:56;7.57;;;3.47;;
14169;SDS011;63889;50.596;8.690;2023-04-06T02:44:22;8.07;;;3.90;;
14169;SDS011;63889;50.596;8.690;2023-04-06T02:46:48;9.65;;;4.07;;
14169;SDS011;63889;50.596;8.690;2023-04-06T02:49:13;8.32;;;3.92;;
14169;SDS011;63889;50.596;8.690;2023-04-06T02:51:39;6.38;;;3.60;;
14169;SDS011;63889;50.596;8.690;2023-04-06T02:54:05;7.78;;;3.60;;
14169;SDS011;63889;50.596;8.690;2023-04-06T02:56:30;6.10;;;3.60;;
14169;SDS011;63889;50.596;8.690;2023-04-06T02:58:56;6.10;;;3.63;;
14169;SDS011;63889;50.596;8.690;2023-04-06T03:01:21;6.72;;;3.67;;
14169;SDS011;63889;50.596;8.690;2023-04-06T03:03:48;8.00;;;4.00;;
14169;SDS011;63889;50.596;8.690;2023-04-06T03:06:13;9.70;;;3.90;;
14169;SDS011;63889;50.596;8.690;2023-04-06T03:08:39;8.25;;;4.90;;
14169;SDS011;63889;50.596;8.690;2023-04-06T03:11:05;5.72;;;3.65;;
14169;SDS011;63889;50.596;8.690;2023-04-06T03:13:30;7.90;;;3.88;;
14169;SDS011;63889;50.596;8.690;2023-04-06T03:15:56;10.43;;;3.47;;
14169;SDS011;63889;50.596;8.690;2023-04-06T03:18:22;5.00;;;3.22;;
14169;SDS011;63889;50.596;8.690;2023-04-06T03:20:49;6.55;;;3.50;;
14169;SDS011;63889;50.596;8.690;2023-04-06T03:23:15;9.48;;;3.95;;
14169;SDS011;63889;50.596;8.690;2023-04-06T03:25:40;8.65;;;3.60;;
14169;SDS011;63889;50.596;8.690;2023-04-06T03:28:06;6.28;;;3.50;;
14169;SDS011;63889;50.596;8.690;2023-04-06T03:30:32;8.27;;;3.85;;
14169;SDS011;63889;50.596;8.690;2023-04-06T03:32:57;7.75;;;4.18;;
14169;SDS011;63889;50.596;8.690;2023-04-06T03:35:23;8.35;;;3.60;;
14169;SDS011;63889;50.596;8.690;2023-04-06T03:37:49;6.80;;;4.07;;
14169;SDS011;63889;50.596;8.690;2023-04-06T03:40:15;6.10;;;3.42;;
14169;SDS011;63889;50.596;8.690;2023-04-06T03:42:40;7.30;;;3.42;;
14169;SDS011;63889;50.596;8.690;2023-04-06T03:45:06;7.53;;;3.60;;
14169;SDS011;63889;50.596;8.690;2023-04-06T03:47:32;7.03;;;3.78;;
14169;SDS011;63889;50.596;8.690;2023-04-06T03:49:58;6.20;;;3.78;;
14169;SDS011;63889;50.596;8.690;2023-04-06T03:52:23;10.05;;;3.80;;
14169;SDS011;63889;50.596;8.690;2023-04-06T03:54:49;7.13;;;3.97;;
14169;SDS011;63889;50.596;8.690;2023-04-06T03:57:15;6.50;;;3.58;;
14169;SDS011;63889;50.596;8.690;2023-04-06T03:59:40;8.40;;;3.88;;
14169;SDS011;63889;50.596;8.690;2023-04-06T04:02:06;5.68;;;3.65;;
14169;SDS011;63889;50.596;8.690;2023-04-06T04:04:31;8.70;;;4.22;;
14169;SDS011;63889;50.596;8.690;2023-04-06T04:06:57;9.07;;;4.22;;
14169;SDS011;63889;50.596;8.690;2023-04-06T04:09:22;7.88;;;4.00;;
14169;SDS011;63889;50.596;8.690;2023-04-06T04:11:48;6.75;;;3.58;;
14169;SDS011;63889;50.596;8.690;2023-04-06T04:14:14;6.10;;;3.53;;
14169;SDS011;63889;50.596;8.690;2023-04-06T04:16:39;10.52;;;3.60;;
14169;SDS011;63889;50.596;8.690;2023-04-06T04:19:06;8.50;;;4.30;;
14169;SDS011;63889;50.596;8.690;2023-04-06T04:21:32;6.03;;;3.72;;
14169;SDS011;63889;50.596;8.690;2023-04-06T04:23:58;8.38;;;3.90;;
14169;SDS011;63889;50.596;8.690;2023-04-06T04:26:23;7.88;;;3.65;;
14169;SDS011;63889;50.596;8.690;2023-04-06T04:28:49;8.15;;;3.83;;
14169;SDS011;63889;50.596;8.690;2023-04-06T04:31:15;9.23;;;4.50;;
14169;SDS011;63889;50.596;8.690;2023-04-06T04:33:43;13.82;;;4.88;;
14169;SDS011;63889;50.596;8.690;2023-04-06T04:36:08;7.38;;;3.55;;
14169;SDS011;63889;50.596;8.690;2023-04-06T04:38:35;8.25;;;3.63;;
14169;SDS011;63889;50.596;8.690;2023-04-06T04:41:00;7.82;;;3.50;;
14169;SDS011;63889;50.596;8.690;2023-04-06T04:43:26;6.32;;;4.07;;
14169;SDS011;63889;50.596;8.690;2023-04-06T04:45:52;9.35;;;4.68;;
14169;SDS011;63889;50.596;8.690;2023-04-06T04:48:17;9.82;;;4.43;;
14169;SDS011;63889;50.596;8.690;2023-04-06T04:50:43;7.72;;;3.97;;
14169;SDS011;63889;50.596;8.690;2023-04-06T04:53:09;10.70;;;4.00;;
14169;SDS011;63889;50.596;8.690;2023-04-06T04:55:35;7.63;;;3.97;;
14169;SDS011;63889;50.596;8.690;2023-04-06T04:58:00;19.05;;;4.32;;
14169;SDS011;63889;50.596;8.690;2023-04-06T05:00:27;7.65;;;3.97;;
14169;SDS011;63889;50.596;8.690;2023-04-06T05:02:52;7.78;;;3.90;;
14169;SDS011;63889;50.596;8.690;2023-04-06T05:05:18;14.23;;;4.20;;
14169;SDS011;63889;50.596;8.690;2023-04-06T05:07:44;15.75;;;4.35;;
14169;SDS011;63889;50.596;8.690;2023-04-06T05:10:09;15.15;;;3.60;;
14169;SDS011;63889;50.596;8.690;2023-04-06T05:12:35;8.68;;;3.80;;
14169;SDS011;63889;50.596;8.690;2023-04-06T05:15:02;10.73;;;3.92;;
14169;SDS011;63889;50.596;8.690;2023-04-06T05:17:27;8.25;;;4.10;;
14169;SDS011;63889;50.596;8.690;2023-04-06T05:19:53;9.48;;;4.03;;
14169;SDS011;63889;50.596;8.690;2023-04-06T05:22:19;6.82;;;4.30;;
14169;SDS011;63889;50.596;8.690;2023-04-06T05:24:45;8.95;;;3.97;;
14169;SDS011;63889;50.596;8.690;2023-04-06T05:27:10;6.97;;;4.45;;
14169;SDS011;63889;50.596;8.690;2023-04-06T05:29:36;9.32;;;4.00;;
14169;SDS011;63889;50.596;8.690;2023-04-06T05:32:01;6.80;;;3.80;;
14169;SDS011;63889;50.596;8.690;2023-04-06T05:34:27;7.75;;;4.35;;
14169;SDS011;63889;50.596;8.690;2023-04-06T05:36:53;6.78;;;4.03;;
14169;SDS011;63889;50.596;8.690;2023-04-06T05:39:18;10.50;;;3.92;;
14169;SDS011;63889;50.596;8.690;2023-04-06T05:41:44;4.78;;;3.28;;
14169;SDS011;63889;50.596;8.690;2023-04-06T05:44:10;9.77;;;3.88;;
14169;SDS011;63889;50.596;8.690;2023-04-06T05:46:35;6.38;;;3.70;;
14169;SDS011;63889;50.596;8.690;2023-04-06T05:49:03;8.20;;;4.32;;
14169;SDS011;63889;50.596;8.690;2023-04-06T05:51:29;15.45;;;4.40;;
14169;SDS011;63889;50.596;8.690;2023-04-06T05:53:55;9.95;;;4.90;;
14169;SDS011;63889;50.596;8.690;2023-04-06T05:56:20;7.13;;;3.67;;
14169;SDS011;63889;50.596;8.690;2023-04-06T05:58:46;12.00;;;4.47;;
14169;SDS011;63889;50.596;8.690;2023-04-06T06:01:11;7.88;;;4.32;;
14169;SDS011;63889;50.596;8.690;2023-04-06T06:03:37;10.38;;;4.47;;
14169;SDS011;63889;50.596;8.690;2023-04-06T06:06:03;8.35;;;4.20;;
14169;SDS011;63889;50.596;8.690;2023-04-06T06:08:29;7.30;;;4.13;;
14169;SDS011;63889;50.596;8.690;2023-04-06T06:10:55;11.98;;;4.82;;
14169;SDS011;63889;50.596;8.690;2023-04-06T06:13:24;11.48;;;4.93;;
14169;SDS011;63889;50.596;8.690;2023-04-06T06:15:50;7.70;;;4.25;;
14169;SDS011;63889;50.596;8.690;2023-04-06T06:18:16;8.07;;;4.55;;
14169;SDS011;63889;50.596;8.690;2023-04-06T06:20:41;8.80;;;4.78;;
14169;SDS011;63889;50.596;8.690;2023-04-06T06:23:07;10.95;;;4.78;;
14169;SDS011;63889;50.596;8.690;2023-04-06T06:25:33;14.60;;;5.03;;
14169;SDS011;63889;50.596;8.690;2023-04-06T06:27:58;12.60;;;4.90;;
14169;SDS011;63889;50.596;8.690;2023-04-06T06:30:24;9.00;;;4.82;;
14169;SDS011;63889;50.596;8.690;2023-04-06T06:32:51;8.88;;;5.10;;
14169;SDS011;63889;50.596;8.690;2023-04-06T06:35:16;10.65;;;4.75;;
14169;SDS011;63889;50.596;8.690;2023-04-06T06:37:42;11.77;;;5.18;;
14169;SDS011;63889;50.596;8.690;2023-04-06T06:40:08;13.63;;;5.63;;
14169;SDS011;63889;50.596;8.690;2023-04-06T06:42:35;9.65;;;5.00;;
14169;SDS011;63889;50.596;8.690;2023-04-06T06:45:01;8.00;;;5.13;;
14169;SDS011;63889;50.596;8.690;2023-04-06T06:47:27;8.52;;;4.97;;
14169;SDS011;63889;50.596;8.690;2023-04-06T06:49:53;7.82;;;4.97;;
14169;SDS011;63889;50.596;8.690;2023-04-06T06:52:20;12.82;;;5.10;;
14169;SDS011;63889;50.596;8.690;2023-04-06T06:54:46;9.98;;;5.78;;
14169;SDS011;63889;50.596;8.690;2023-04-06T06:57:12;11.73;;;5.13;;
14169;SDS011;63889;50.596;8.690;2023-04-06T06:59:37;10.73;;;5.22;;
14169;SDS011;63889;50.596;8.690;2023-04-06T07:02:03;10.05;;;5.15;;
14169;SDS011;63889;50.596;8.690;2023-04-06T07:04:28;12.88;;;5.40;;
14169;SDS011;63889;50.596;8.690;2023-04-06T07:06:54;9.75;;;4.63;;
14169;SDS011;63889;50.596;8.690;2023-04-06T07:09:20;11.13;;;4.95;;
14169;SDS011;63889;50.596;8.690;2023-04-06T07:11:45;15.65;;;5.60;;
14169;SDS011;63889;50.596;8.690;2023-04-06T07:14:11;12.65;;;5.50;;
14169;SDS011;63889;50.596;8.690;2023-04-06T07:16:37;13.50;;;5.25;;
14169;SDS011;63889;50.596;8.690;2023-04-06T07:19:02;12.73;;;5.78;;
14169;SDS011;63889;50.596;8.690;2023-04-06T07:21:28;10.48;;;5.70;;
14169;SDS011;63889;50.596;8.690;2023-04-06T07:23:53;11.18;;;4.88;;
14169;SDS011;63889;50.596;8.690;2023-04-06T07:26:19;14.07;;;5.47;;
14169;SDS011;63889;50.596;8.690;2023-04-06T07:28:45;11.32;;;5.60;;
14169;SDS011;63889;50.596;8.690;2023-04-06T07:31:10;12.90;;;5.45;;
14169;SDS011;63889;50.596;8.690;2023-04-06T07:33:36;8.93;;;4.65;;
14169;SDS011;63889;50.596;8.690;2023-04-06T07:36:02;7.97;;;4.43;;
14169;SDS011;63889;50.596;8.690;2023-04-06T07:38:27;13.73;;;4.57;;
14169;SDS011;63889;50.596;8.690;2023-04-06T07:40:53;9.57;;;5.10;;
14169;SDS011;63889;50.596;8.690;2023-04-06T07:43:19;8.65;;;5.18;;
14169;SDS011;63889;50.596;8.690;2023-04-06T07:45:45;15.70;;;5.53;;
14169;SDS011;63889;50.596;8.690;2023-04-06T07:48:10;9.70;;;4.68;;
14169;SDS011;63889;50.596;8.690;2023-04-06T07:50:36;10.90;;;5.40;;
14169;SDS011;63889;50.596;8.690;2023-04-06T07:53:02;11.95;;;5.18;;
14169;SDS011;63889;50.596;8.690;2023-04-06T07:55:27;10.57;;;5.28;;
14169;SDS011;63889;50.596;8.690;2023-04-06T07:57:53;9.85;;;5.65;;
14169;SDS011;63889;50.596;8.690;2023-04-06T08:00:19;10.00;;;5.22;;
14169;SDS011;63889;50.596;8.690;2023-04-06T08:02:45;9.43;;;5.18;;
14169;SDS011;63889;50.596;8.690;2023-04-06T08:05:10;7.50;;;4.90;;
14169;SDS011;63889;50.596;8.690;2023-04-06T08:07:36;10.95;;;5.22;;
14169;SDS011;63889;50.596;8.690;2023-04-06T08:10:02;11.05;;;5.53;;
14169;SDS011;63889;50.596;8.690;2023-04-06T08:12:28;15.35;;;6.63;;
14169;SDS011;63889;50.596;8.690;2023-04-06T08:14:53;10.40;;;5.97;;
14169;SDS011;63889;50.596;8.690;2023-04-06T08:17:19;12.75;;;6.55;;
14169;SDS011;63889;50.596;8.690;2023-04-06T08:19:45;15.43;;;6.20;;
14169;SDS011;63889;50.596;8.690;2023-04-06T08:22:11;13.30;;;5.53;;
14169;SDS011;63889;50.596;8.690;2023-04-06T08:24:37;11.52;;;5.72;;
14169;SDS011;63889;50.596;8.690;2023-04-06T08:27:02;10.80;;;6.57;;
14169;SDS011;63889;50.596;8.690;2023-04-06T08:29:28;10.80;;;5.80;;
14169;SDS011;63889;50.596;8.690;2023-04-06T08:31:54;10.77;;;6.18;;
14169;SDS011;63889;50.596;8.690;2023-04-06T08:34:20;11.30;;;6.13;;
14169;SDS011;63889;50.596;8.690;2023-04-06T08:36:49;10.23;;;6.03;;
14169;SDS011;63889;50.596;8.690;2023-04-06T08:39:15;12.68;;;5.88;;
14169;SDS011;63889;50.596;8.690;2023-04-06T08:41:43;12.40;;;6.05;;
14169;SDS011;63889;50.596;8.690;2023-04-06T08:44:09;9.60;;;5.75;;
14169;SDS011;63889;50.596;8.690;2023-04-06T08:46:36;10.25;;;6.57;;
14169;SDS011;63889;50.596;8.690;2023-04-06T08:49:02;16.17;;;6.35;;
14169;SDS011;63889;50.596;8.690;2023-04-06T08:51:31;13.20;;;6.68;;
14169;SDS011;63889;50.596;8.690;2023-04-06T08:53:58;16.67;;;6.78;;
14169;SDS011;63889;50.596;8.690;2023-04-06T08:56:24;11.10;;;6.30;;
14169;SDS011;63889;50.596;8.690;2023-04-06T08:58:52;12.10;;;6.30;;
14169;SDS011;63889;50.596;8.690;2023-04-06T09:01:20;14.13;;;6.28;;
14169;SDS011;63889;50.596;8.690;2023-04-06T09:03:48;14.15;;;7.43;;
14169;SDS011;63889;50.596;8.690;2023-04-06T09:06:14;13.35;;;7.22;;
14169;SDS011;63889;50.596;8.690;2023-04-06T09:08:40;15.50;;;6.88;;
14169;SDS011;63889;50.596;8.690;2023-04-06T09:11:06;11.43;;;6.60;;
14169;SDS011;63889;50.596;8.690;2023-04-06T09:13:44;11.77;;;7.03;;
14169;SDS011;63889;50.596;8.690;2023-04-06T09:16:10;16.70;;;7.43;;
14169;SDS011;63889;50.596;8.690;2023-04-06T09:18:36;14.60;;;7.63;;
14169;SDS011;63889;50.596;8.690;2023-04-06T09:21:03;14.07;;;7.10;;
14169;SDS011;63889;50.596;8.690;2023-04-06T09:23:30;12.20;;;7.43;;
14169;SDS011;63889;50.596;8.690;2023-04-06T09:26:15;14.93;;;7.05;;
14169;SDS011;63889;50.596;8.690;2023-04-06T09:31:15;14.15;;;6.82;;
14169;SDS011;63889;50.596;8.690;2023-04-06T09:33:43;16.30;;;7.90;;
14169;SDS011;63889;50.596;8.690;2023-04-06T09:36:09;15.60;;;7.70;;
14169;SDS011;63889;50.596;8.690;2023-04-06T09:38:37;19.40;;;7.18;;
14169;SDS011;63889;50.596;8.690;2023-04-06T09:41:03;15.13;;;7.47;;
14169;SDS011;63889;50.596;8.690;2023-04-06T09:43:29;14.25;;;6.50;;
14169;SDS011;63889;50.596;8.690;2023-04-06T09:45:55;15.85;;;7.47;;
14169;SDS011;63889;50.596;8.690;2023-04-06T09:48:21;16.88;;;8.75;;
14169;SDS011;63889;50.596;8.690;2023-04-06T09:50:49;13.98;;;7.10;;
14169;SDS011;63889;50.596;8.690;2023-04-06T09:53:18;20.20;;;7.80;;
14169;SDS011;63889;50.596;8.690;2023-04-06T09:55:45;12.20;;;7.22;;
14169;SDS011;63889;50.596;8.690;2023-04-06T09:58:15;14.57;;;7.70;;
14169;SDS011;63889;50.596;8.690;2023-04-06T10:00:52;17.80;;;7.53;;
14169;SDS011;63889;50.596;8.690;2023-04-06T10:03:33;13.98;;;7.60;;
14169;SDS011;63889;50.596;8.690;2023-04-06T10:06:13;14.02;;;6.85;;
14169;SDS011;63889;50.596;8.690;2023-04-06T10:08:40;16.02;;;6.93;;
14169;SDS011;63889;50.596;8.690;2023-04-06T10:11:08;14.02;;;7.22;;
14169;SDS011;63889;50.596;8.690;2023-04-06T10:13:35;13.48;;;7.32;;
14169;SDS011;63889;50.596;8.690;2023-04-06T10:16:01;16.73;;;7.57;;
14169;SDS011;63889;50.596;8.690;2023-04-06T10:18:27;15.30;;;7.63;;
14169;SDS011;63889;50.596;8.690;2023-04-06T10:21:06;14.35;;;7.55;;
14169;SDS011;63889;50.596;8.690;2023-04-06T10:23:39;12.60;;;6.47;;
14169;SDS011;63889;50.596;8.690;2023-04-06T10:26:12;17.48;;;6.93;;
14169;SDS011;63889;50.596;8.690;2023-04-06T10:28:41;13.00;;;7.15;;
14169;SDS011;63889;50.596;8.690;2023-04-06T10:31:07;17.23;;;8.27;;
14169;SDS011;63889;50.596;8.690;2023-04-06T10:33:33;12.50;;;7.13;;
14169;SDS011;63889;50.596;8.690;2023-04-06T10:36:09;15.10;;;7.63;;
14169;SDS011;63889;50.596;8.690;2023-04-06T10:38:38;14.20;;;7.53;;
14169;SDS011;63889;50.596;8.690;2023-04-06T10:41:05;11.73;;;6.40;;
14169;SDS011;63889;50.596;8.690;2023-04-06T10:43:35;20.15;;;7.40;;
14169;SDS011;63889;50.596;8.690;2023-04-06T10:46:02;20.60;;;7.63;;
14169;SDS011;63889;50.596;8.690;2023-04-06T10:48:40;14.70;;;7.22;;
14169;SDS011;63889;50.596;8.690;2023-04-06T10:51:07;14.50;;;7.30;;
14169;SDS011;63889;50.596;8.690;2023-04-06T10:53:38;15.32;;;7.38;;
14169;SDS011;63889;50.596;8.690;2023-04-06T10:56:09;20.90;;;7.68;;
14169;SDS011;63889;50.596;8.690;2023-04-06T10:58:36;12.65;;;6.43;;
14169;SDS011;63889;50.596;8.690;2023-04-06T11:01:02;14.57;;;7.50;;
14169;SDS011;63889;50.596;8.690;2023-04-06T11:03:28;14.98;;;7.10;;
14169;SDS011;63889;50.596;8.690;2023-04-06T11:05:54;14.60;;;7.40;;
14169;SDS011;63889;50.596;8.690;2023-04-06T11:08:27;13.57;;;7.80;;
14169;SDS011;63889;50.596;8.690;2023-04-06T11:11:07;16.10;;;8.38;;
14169;SDS011;63889;50.596;8.690;2023-04-06T11:13:53;22.00;;;9.60;;
14169;SDS011;63889;50.596;8.690;2023-04-06T11:16:27;14.80;;;7.85;;
14169;SDS011;63889;50.596;8.690;2023-04-06T11:19:02;14.27;;;7.30;;
14169;SDS011;63889;50.596;8.690;2023-04-06T11:24:05;16.15;;;8.68;;
14169;SDS011;63889;50.596;8.690;2023-04-06T11:26:31;17.83;;;8.50;;
14169;SDS011;63889;50.596;8.690;2023-04-06T11:29:01;15.48;;;8.00;;
14169;SDS011;63889;50.596;8.690;2023-04-06T11:31:27;18.67;;;8.35;;
14169;SDS011;63889;50.596;8.690;2023-04-06T11:33:56;18.80;;;8.27;;
14169;SDS011;63889;50.596;8.690;2023-04-06T11:36:22;20.02;;;8.10;;
14169;SDS011;63889;50.596;8.690;2023-04-06T11:38:48;19.65;;;8.25;;
14169;SDS011;63889;50.596;8.690;2023-04-06T11:41:14;16.00;;;7.57;;
14169;SDS011;63889;50.596;8.690;2023-04-06T11:43:45;28.20;;;7.95;;
14169;SDS011;63889;50.596;8.690;2023-04-06T11:46:16;15.90;;;7.28;;
14169;SDS011;63889;50.596;8.690;2023-04-06T11:51:12;21.45;;;7.13;;
14169;SDS011;63889;50.596;8.690;2023-04-06T11:53:44;16.02;;;7.80;;
14169;SDS011;63889;50.596;8.690;2023-04-06T11:56:22;15.77;;;8.35;;
14169;SDS011;63889;50.596;8.690;2023-04-06T11:58:49;13.55;;;6.88;;
14169;SDS011;63889;50.596;8.690;2023-04-06T12:01:14;14.50;;;6.63;;
14169;SDS011;63889;50.596;8.690;2023-04-06T12:03:40;16.00;;;6.55;;
14169;SDS011;63889;50.596;8.690;2023-04-06T12:06:06;17.50;;;8.30;;
14169;SDS011;63889;50.596;8.690;2023-04-06T12:08:31;15.48;;;6.85;;
14169;SDS011;63889;50.596;8.690;2023-04-06T12:10:57;13.32;;;7.15;;
14169;SDS011;63889;50.596;8.690;2023-04-06T12:13:24;13.95;;;7.28;;
14169;SDS011;63889;50.596;8.690;2023-04-06T12:15:49;15.63;;;7.95;;
14169;SDS011;63889;50.596;8.690;2023-04-06T12:18:15;15.25;;;7.47;;
14169;SDS011;63889;50.596;8.690;2023-04-06T12:20:41;10.80;;;5.75;;
14169;SDS011;63889;50.596;8.690;2023-04-06T12:23:06;12.27;;;5.90;;
14169;SDS011;63889;50.596;8.690;2023-04-06T12:25:32;9.52;;;5.90;;
14169;SDS011;63889;50.596;8.690;2023-04-06T12:27:57;9.23;;;5.60;;
14169;SDS011;63889;50.596;8.690;2023-04-06T12:30:23;9.95;;;5.45;;
14169;SDS011;63889;50.596;8.690;2023-04-06T12:32:49;11.88;;;5.32;;
14169;SDS011;63889;50.596;8.690;2023-04-06T12:35:15;11.98;;;5.40;;
14169;SDS011;63889;50.596;8.690;2023-04-06T12:37:41;13.85;;;5.75;;
14169;SDS011;63889;50.596;8.690;2023-04-06T12:40:07;12.10;;;5.40;;
14169;SDS011;63889;50.596;8.690;2023-04-06T12:42:35;10.95;;;6.15;;
14169;SDS011;63889;50.596;8.690;2023-04-06T12:45:01;11.82;;;5.93;;
14169;SDS011;63889;50.596;8.690;2023-04-06T12:47:27;10.73;;;5.00;;
14169;SDS011;63889;50.596;8.690;2023-04-06T12:49:54;9.57;;;4.80;;
14169;SDS011;63889;50.596;8.690;2023-04-06T12:52:19;8.65;;;4.55;;
14169;SDS011;63889;50.596;8.690;2023-04-06T12:54:45;9.88;;;4.03;;
14169;SDS011;63889;50.596;8.690;2023-04-06T12:57:12;7.45;;;4.40;;
14169;SDS011;63889;50.596;8.690;2023-04-06T12:59:37;7.95;;;4.90;;
14169;SDS011;63889;50.596;8.690;2023-04-06T13:02:03;8.68;;;4.05;;
14169;SDS011;63889;50.596;8.690;2023-04-06T13:04:29;7.88;;;3.63;;
14169;SDS011;63889;50.596;8.690;2023-04-06T13:06:55;9.45;;;4.78;;
14169;SDS011;63889;50.596;8.690;2023-04-06T13:09:21;7.47;;;4.28;;
14169;SDS011;63889;50.596;8.690;2023-04-06T13:11:47;7.80;;;4.28;;
14169;SDS011;63889;50.596;8.690;2023-04-06T13:14:12;9.77;;;4.47;;
14169;SDS011;63889;50.596;8.690;2023-04-06T13:16:38;9.43;;;4.78;;
14169;SDS011;63889;50.596;8.690;2023-04-06T13:19:03;9.02;;;5.43;;
14169;SDS011;63889;50.596;8.690;2023-04-06T13:21:29;10.15;;;5.15;;
14169;SDS011;63889;50.596;8.690;2023-04-06T13:23:55;9.70;;;4.70;;
14169;SDS011;63889;50.596;8.690;2023-04-06T13:26:21;10.25;;;5.15;;
14169;SDS011;63889;50.596;8.690;2023-04-06T13:28:46;8.65;;;4.78;;
14169;SDS011;63889;50.596;8.690;2023-04-06T13:31:12;7.43;;;4.20;;
14169;SDS011;63889;50.596;8.690;2023-04-06T13:33:38;8.00;;;4.50;;
14169;SDS011;63889;50.596;8.690;2023-04-06T13:36:05;8.90;;;3.50;;
14169;SDS011;63889;50.596;8.690;2023-04-06T13:38:32;7.78;;;4.07;;
14169;SDS011;63889;50.596;8.690;2023-04-06T13:40:58;10.00;;;4.40;;
14169;SDS011;63889;50.596;8.690;2023-04-06T13:43:24;8.93;;;4.38;;
14169;SDS011;63889;50.596;8.690;2023-04-06T13:45:52;9.02;;;4.75;;
14169;SDS011;63889;50.596;8.690;2023-04-06T13:48:23;8.57;;;4.93;;
14169;SDS011;63889;50.596;8.690;2023-04-06T13:50:49;7.82;;;4.35;;
14169;SDS011;63889;50.596;8.690;2023-04-06T13:53:14;7.93;;;4.95;;
14169;SDS011;63889;50.596;8.690;2023-04-06T13:55:40;7.75;;;4.18;;
14169;SDS011;63889;50.596;8.690;2023-04-06T13:58:06;6.53;;;3.88;;
14169;SDS011;63889;50.596;8.690;2023-04-06T14:00:31;10.75;;;4.15;;
14169;SDS011;63889;50.596;8.690;2023-04-06T14:02:57;9.02;;;3.80;;
14169;SDS011;63889;50.596;8.690;2023-04-06T14:05:23;8.68;;;5.10;;
14169;SDS011;63889;50.596;8.690;2023-04-06T14:07:49;6.78;;;4.00;;
14169;SDS011;63889;50.596;8.690;2023-04-06T14:10:14;10.48;;;4.47;;
14169;SDS011;63889;50.596;8.690;2023-04-06T14:12:41;8.88;;;5.22;;
14169;SDS011;63889;50.596;8.690;2023-04-06T14:15:09;6.65;;;3.72;;
14169;SDS011;63889;50.596;8.690;2023-04-06T14:17:35;6.28;;;3.97;;
14169;SDS011;63889;50.596;8.690;2023-04-06T14:20:01;9.23;;;4.20;;
14169;SDS011;63889;50.596;8.690;2023-04-06T14:22:27;9.18;;;4.38;;
14169;SDS011;63889;50.596;8.690;2023-04-06T14:24:53;9.18;;;4.68;;
14169;SDS011;63889;50.596;8.690;2023-04-06T14:27:18;8.98;;;4.85;;
14169;SDS011;63889;50.596;8.690;2023-04-06T14:29:44;8.77;;;4.72;;
14169;SDS011;63889;50.596;8.690;2023-04-06T14:32:09;7.10;;;4.32;;
14169;SDS011;63889;50.596;8.690;2023-04-06T14:34:36;9.25;;;4.57;;
14169;SDS011;63889;50.596;8.690;2023-04-06T14:37:02;7.50;;;4.50;;
14169;SDS011;63889;50.596;8.690;2023-04-06T14:39:28;10.00;;;5.25;;
14169;SDS011;63889;50.596;8.690;2023-04-06T14:41:53;10.77;;;5.40;;
14169;SDS011;63889;50.596;8.690;2023-04-06T14:44:20;10.63;;;4.50;;